Time;durP1;ratioP1;P1;durP2;ratioP2;P2;SDS_P1;SDS_P2;PMS_P1;PMS_P2;Temp;Humidity;BMP_temperature;BMP_pressure;BME280_temperature;BME280_humidity;BME280_pressure;Samples;Min_cycle;Max_cycle;Signal;HPM_P1;HPM_P2
2021/04/30 00:01:55;;;;;;;15.83;11.43;;;;;;;13.40;69.52;99601.41;1704354;82;26131;-74
2021/04/30 00:04:22;;;;;;;13.65;10.45;;;;;;;13.39;69.49;99603.80;1677816;82;25722;-75
2021/04/30 00:06:50;;;;;;;14.47;10.45;;;;;;;13.36;69.85;99604.27;1703917;82;25754;-75
2021/04/30 00:09:18;;;;;;;14.15;9.53;;;;;;;13.32;69.80;99609.81;1703678;82;25902;-74
2021/04/30 00:11:49;;;;;;;12.05;9.10;;;;;;;13.29;70.03;99608.08;1714949;82;27545;-75
2021/04/30 00:14:15;;;;;;;13.32;9.03;;;;;;;13.28;69.76;99605.12;1704237;82;25785;-75
2021/04/30 00:16:43;;;;;;;12.30;8.90;;;;;;;13.29;69.89;99595.98;1721714;82;25730;-75
2021/04/30 00:19:10;;;;;;;12.10;8.53;;;;;;;13.28;69.94;99594.36;1722472;82;25767;-75
2021/04/30 00:21:37;;;;;;;10.60;8.13;;;;;;;13.25;70.00;99592.11;1700448;83;25831;-74
2021/04/30 00:24:06;;;;;;;13.20;9.23;;;;;;;13.24;70.07;99586.45;1700219;82;28375;-75
2021/04/30 00:26:34;;;;;;;12.05;7.95;;;;;;;13.24;70.10;99592.62;1678246;82;26240;-75
2021/04/30 00:29:02;;;;;;;11.80;7.80;;;;;;;13.22;70.18;99597.41;1679609;82;25366;-75
2021/04/30 00:31:29;;;;;;;7.70;6.22;;;;;;;13.18;70.31;99601.61;1701546;82;25762;-75
2021/04/30 00:33:58;;;;;;;12.25;7.78;;;;;;;13.11;70.26;99594.98;1702093;82;25760;-74
2021/04/30 00:36:26;;;;;;;10.48;7.03;;;;;;;13.05;70.37;99597.23;1677068;83;27560;-75
2021/04/30 00:38:54;;;;;;;9.08;6.62;;;;;;;13.03;70.43;99603.33;1671163;82;26453;-75
2021/04/30 00:41:21;;;;;;;8.90;6.60;;;;;;;12.99;70.52;99602.15;1699833;82;25781;-74
2021/04/30 00:43:49;;;;;;;9.85;6.62;;;;;;;13.00;70.62;99607.80;1695704;83;25822;-75
2021/04/30 00:46:16;;;;;;;7.83;5.90;;;;;;;13.01;70.54;99609.46;1701556;82;25800;-75
2021/04/30 00:48:43;;;;;;;8.15;6.40;;;;;;;13.00;70.74;99607.01;1674406;82;28296;-75
2021/04/30 00:51:11;;;;;;;11.48;7.05;;;;;;;12.97;70.73;99601.55;1713121;83;25939;-75
2021/04/30 00:53:38;;;;;;;9.30;7.28;;;;;;;12.96;70.74;99596.38;1702496;82;26463;-75
2021/04/30 00:56:05;;;;;;;10.82;6.92;;;;;;;12.98;70.58;99598.35;1701038;82;26235;-74
2021/04/30 00:58:33;;;;;;;7.72;6.35;;;;;;;13.01;70.62;99616.19;1636472;84;26534;-74
2021/04/30 01:01:00;;;;;;;9.43;6.60;;;;;;;12.98;70.73;99619.31;1638258;86;27629;-75
2021/04/30 01:03:28;;;;;;;9.45;6.37;;;;;;;12.98;70.76;99617.17;1698279;82;25982;-74
2021/04/30 01:05:55;;;;;;;8.23;6.40;;;;;;;12.97;70.72;99623.58;1696960;83;25884;-75
2021/04/30 01:08:22;;;;;;;10.10;6.58;;;;;;;12.96;70.77;99627.30;1675234;83;26557;-75
2021/04/30 01:10:50;;;;;;;10.40;7.50;;;;;;;12.96;70.76;99621.41;1700457;82;25808;-75
2021/04/30 01:13:17;;;;;;;9.65;7.08;;;;;;;12.97;70.82;99620.89;1698766;83;28385;-75
2021/04/30 01:15:44;;;;;;;11.05;7.10;;;;;;;12.98;70.76;99626.58;1697961;83;26081;-75
2021/04/30 01:18:12;;;;;;;10.13;6.83;;;;;;;12.98;70.82;99623.34;1675716;83;26323;-74
2021/04/30 01:20:39;;;;;;;9.78;6.95;;;;;;;12.99;70.85;99626.86;1699639;83;26927;-75
2021/04/30 01:23:06;;;;;;;8.43;6.72;;;;;;;12.96;71.02;99632.16;1675419;83;25785;-75
2021/04/30 01:25:37;;;;;;;10.28;6.75;;;;;;;12.92;70.95;99635.00;1673453;82;27615;-75
2021/04/30 01:28:06;;;;;;;9.83;6.70;;;;;;;12.91;70.91;99631.20;1720317;82;26039;-75
2021/04/30 01:30:37;;;;;;;9.43;6.20;;;;;;;12.86;71.13;99625.67;1698142;83;25918;-75
2021/04/30 01:33:20;;;;;;;7.25;6.20;;;;;;;12.82;71.37;99633.38;1699054;82;25802;-75
2021/04/30 01:35:48;;;;;;;11.57;7.58;;;;;;;12.81;71.26;99641.13;1699080;82;25805;-75
2021/04/30 01:38:15;;;;;;;10.15;6.83;;;;;;;12.76;71.51;99636.96;1675045;82;27722;-75
2021/04/30 01:40:42;;;;;;;10.10;7.58;;;;;;;12.72;71.37;99649.72;1632789;84;25967;-75
2021/04/30 01:43:17;;;;;;;11.28;7.70;;;;;;;12.74;71.44;99649.80;1637649;85;25918;-75
2021/04/30 01:45:52;;;;;;;8.98;7.15;;;;;;;12.77;71.55;99653.37;1699744;82;25761;-75
2021/04/30 01:48:30;;;;;;;10.65;7.70;;;;;;;12.78;71.48;99652.85;1681087;82;25799;-75
2021/04/30 01:51:00;;;;;;;9.50;7.05;;;;;;;12.78;71.52;99647.48;1699415;82;27648;-74
2021/04/30 01:53:37;;;;;;;10.13;7.42;;;;;;;12.74;71.58;99645.77;1700166;82;25872;-74
2021/04/30 01:56:07;;;;;;;13.28;8.05;;;;;;;12.74;71.56;99644.94;1670163;82;25765;-75
2021/04/30 01:58:36;;;;;;;10.45;7.47;;;;;;;12.74;71.61;99645.77;1670409;83;25797;-74
2021/04/30 02:01:04;;;;;;;11.12;7.90;;;;;;;12.71;71.71;99644.86;1702728;82;25900;-75
2021/04/30 02:03:33;;;;;;;10.80;7.83;;;;;;;12.70;71.72;99643.20;1702174;82;27548;-74
2021/04/30 02:06:00;;;;;;;10.88;7.85;;;;;;;12.68;71.79;99633.75;1695202;82;25756;-74
2021/04/30 02:08:28;;;;;;;13.32;8.75;;;;;;;12.66;71.75;99639.88;1673184;83;25785;-75
2021/04/30 02:10:56;;;;;;;11.83;8.03;;;;;;;12.66;71.82;99643.90;1678558;82;25833;-75
2021/04/30 02:13:23;;;;;;;14.28;9.40;;;;;;;12.68;71.84;99642.61;1698159;82;26440;-75
2021/04/30 02:15:54;;;;;;;12.35;8.45;;;;;;;12.69;71.83;99637.55;1697621;83;27327;-75
2021/04/30 02:18:23;;;;;;;12.68;7.95;;;;;;;12.69;71.86;99633.52;1694779;83;26202;-74
2021/04/30 02:20:51;;;;;;;9.65;7.90;;;;;;;12.67;71.90;99631.58;1692383;82;25823;-74
2021/04/30 02:23:19;;;;;;;9.85;8.38;;;;;;;12.65;71.79;99635.02;1697384;83;26384;-74
2021/04/30 02:25:47;;;;;;;10.95;8.75;;;;;;;12.64;71.98;99642.76;1675380;83;25865;-75
2021/04/30 02:28:14;;;;;;;10.88;8.70;;;;;;;12.63;71.89;99637.62;1673446;83;28361;-75
2021/04/30 02:30:43;;;;;;;14.85;9.93;;;;;;;12.64;71.95;99631.22;1696910;83;25755;-75
2021/04/30 02:33:11;;;;;;;13.83;9.28;;;;;;;12.65;72.00;99635.02;1713702;83;26286;-74
2021/04/30 02:35:42;;;;;;;11.35;8.78;;;;;;;12.63;71.89;99637.62;1697758;83;25887;-74
2021/04/30 02:38:12;;;;;;;11.30;9.03;;;;;;;12.62;71.88;99643.50;1669623;84;26433;-75
2021/04/30 02:40:41;;;;;;;13.10;9.13;;;;;;;12.63;71.92;99651.05;1671005;83;28517;-75
2021/04/30 02:43:13;;;;;;;12.85;8.70;;;;;;;12.62;71.94;99649.39;1692337;83;25768;-75
2021/04/30 02:45:42;;;;;;;11.80;8.13;;;;;;;12.61;71.85;99651.80;1671776;83;26584;-75
2021/04/30 02:48:13;;;;;;;14.20;9.60;;;;;;;12.59;71.82;99648.00;1697691;83;26449;-75
2021/04/30 02:50:42;;;;;;;14.15;9.13;;;;;;;12.55;71.71;99651.34;1674251;83;26072;-74
2021/04/30 02:53:09;;;;;;;12.30;8.95;;;;;;;12.49;71.66;99646.33;1698710;83;28391;-75
2021/04/30 02:55:37;;;;;;;12.53;8.50;;;;;;;12.43;71.74;99649.91;1650185;83;26396;-75
2021/04/30 02:58:04;;;;;;;15.45;10.32;;;;;;;12.36;71.78;99654.51;1676020;83;25853;-75
2021/04/30 03:00:32;;;;;;;11.43;8.70;;;;;;;12.33;71.75;99653.62;1689773;84;26439;-74
2021/04/30 03:03:00;;;;;;;11.35;9.30;;;;;;;12.33;71.75;99657.66;1710433;83;25867;-75
2021/04/30 03:05:28;;;;;;;12.98;9.08;;;;;;;12.28;71.71;99652.94;1698010;83;28273;-75
2021/04/30 03:07:55;;;;;;;13.75;8.95;;;;;;;12.26;71.83;99659.56;1680214;83;25755;-75
2021/04/30 03:10:23;;;;;;;11.53;9.15;;;;;;;12.23;71.77;99659.48;1651184;83;25934;-75
2021/04/30 03:12:51;;;;;;;9.85;8.13;;;;;;;12.18;71.72;99664.70;1673033;83;25668;-74
2021/04/30 03:15:19;;;;;;;13.58;9.98;;;;;;;12.14;71.71;99662.67;1697404;83;25818;-75
2021/04/30 03:17:47;;;;;;;14.20;8.40;;;;;;;12.12;71.64;99672.30;1669096;84;28463;-75
2021/04/30 03:20:16;;;;;;;10.82;8.90;;;;;;;12.12;71.58;99674.16;1690210;84;25839;-74
2021/04/30 03:22:44;;;;;;;13.53;9.28;;;;;;;12.09;71.53;99678.09;1710046;82;25794;-75
2021/04/30 03:25:12;;;;;;;17.02;11.60;;;;;;;12.08;71.56;99672.41;1703271;82;25871;-74
2021/04/30 03:27:40;;;;;;;63.38;38.83;;;;;;;12.08;71.49;99677.78;1702571;82;25822;-74
2021/04/30 03:30:09;;;;;;;86.30;53.10;;;;;;;12.06;71.41;99683.88;1703777;82;28436;-75
2021/04/30 03:32:37;;;;;;;54.63;35.10;;;;;;;12.05;71.34;99681.43;1703313;82;26542;-74
2021/04/30 03:35:06;;;;;;;23.47;17.12;;;;;;;12.02;71.29;99680.52;1700616;82;25896;-75
2021/04/30 03:37:34;;;;;;;62.30;40.35;;;;;;;11.99;71.28;99684.48;1700354;83;25828;-75
2021/04/30 03:40:03;;;;;;;26.62;21.27;;;;;;;11.93;71.33;99685.87;1702436;82;26485;-75
2021/04/30 03:42:30;;;;;;;18.02;12.40;;;;;;;11.88;71.37;99697.25;1706895;82;28393;-75
2021/04/30 03:44:58;;;;;;;13.60;10.53;;;;;;;11.87;71.40;99698.81;1706680;82;26393;-74
2021/04/30 03:47:25;;;;;;;12.55;10.10;;;;;;;11.84;71.40;99698.73;1676609;82;26471;-75
2021/04/30 03:49:52;;;;;;;11.83;9.63;;;;;;;11.82;71.43;99706.69;1679183;82;25788;-74
2021/04/30 03:52:20;;;;;;;12.13;10.43;;;;;;;11.78;71.51;99716.20;1703114;82;26515;-74
2021/04/30 03:54:47;;;;;;;10.65;9.30;;;;;;;11.75;71.57;99716.63;1703193;82;27338;-75
2021/04/30 03:57:14;;;;;;;11.85;9.40;;;;;;;11.72;71.73;99722.44;1676177;82;26168;-75
2021/04/30 03:59:41;;;;;;;11.30;9.70;;;;;;;11.70;71.77;99724.52;1675712;82;25886;-75
2021/04/30 04:02:09;;;;;;;12.53;9.43;;;;;;;11.68;71.83;99719.86;1697006;82;25719;-75
2021/04/30 04:04:36;;;;;;;12.47;8.73;;;;;;;11.68;72.07;99727.39;1695799;82;25920;-75
2021/04/30 04:07:06;;;;;;;11.38;8.43;;;;;;;11.65;71.95;99726.47;1671225;82;27544;-74
2021/04/30 04:09:34;;;;;;;12.13;9.83;;;;;;;11.64;71.98;99724.30;1675638;82;25687;-75
2021/04/30 04:12:01;;;;;;;14.18;9.20;;;;;;;11.63;72.04;99728.00;1702281;82;25935;-75
2021/04/30 04:14:29;;;;;;;13.72;9.63;;;;;;;11.65;72.12;99731.29;1701407;82;25789;-74
2021/04/30 04:16:56;;;;;;;15.78;11.00;;;;;;;11.64;72.10;99736.36;1672638;82;25824;-75
2021/04/30 04:19:23;;;;;;;12.93;10.23;;;;;;;11.63;72.17;99733.36;1700704;82;28564;-75
2021/04/30 04:21:51;;;;;;;13.98;9.50;;;;;;;11.63;72.28;99736.59;1696291;82;25902;-75
2021/04/30 04:24:18;;;;;;;12.85;10.23;;;;;;;11.66;72.44;99738.83;1652917;85;25904;-75
2021/04/30 04:26:45;;;;;;;11.85;10.50;;;;;;;11.68;72.40;99742.14;1637113;85;26324;-75
2021/04/30 04:29:13;;;;;;;13.35;10.48;;;;;;;11.75;72.36;99745.62;1638934;85;25824;-75
2021/04/30 04:31:40;;;;;;;12.88;10.18;;;;;;;11.83;72.46;99749.90;1655283;85;27645;-74
2021/04/30 04:34:07;;;;;;;12.58;9.43;;;;;;;11.88;72.45;99744.20;1654824;85;25841;-74
2021/04/30 04:36:35;;;;;;;13.62;10.10;;;;;;;11.92;72.35;99745.42;1654295;83;26582;-75
2021/04/30 04:39:03;;;;;;;15.43;10.25;;;;;;;11.99;72.15;99746.72;1631722;83;26516;-75
2021/04/30 04:41:30;;;;;;;14.23;9.30;;;;;;;12.05;72.04;99738.62;1637917;85;28504;-77
2021/04/30 04:43:58;;;;;;;11.88;8.65;;;;;;;12.09;71.77;99744.38;1606892;87;27441;-77
2021/04/30 04:46:25;;;;;;;14.55;9.80;;;;;;;12.12;71.68;99745.30;1624497;85;26098;-77
2021/04/30 04:48:52;;;;;;;11.50;8.88;;;;;;;12.16;71.58;99748.67;1627548;86;25895;-78
2021/04/30 04:51:20;;;;;;;15.28;9.65;;;;;;;12.21;71.55;99748.02;1647924;85;26432;-76
2021/04/30 04:53:47;;;;;;;16.60;10.13;;;;;;;12.27;71.44;99745.80;1648133;86;26234;-75
2021/04/30 04:56:15;;;;;;;13.22;9.90;;;;;;;12.33;71.43;99746.27;1626585;86;27657;-77
2021/04/30 04:58:42;;;;;;;15.13;9.30;;;;;;;12.42;71.41;99754.36;1626783;86;26098;-75
2021/04/30 05:01:09;;;;;;;13.25;9.38;;;;;;;12.48;71.16;99760.71;1649323;85;26150;-75
2021/04/30 05:03:37;;;;;;;13.35;10.30;;;;;;;12.50;70.78;99762.14;1626170;86;25830;-75
2021/04/30 05:06:05;;;;;;;13.78;8.73;;;;;;;12.50;70.67;99763.48;1626294;86;25944;-75
2021/04/30 05:08:32;;;;;;;13.15;10.08;;;;;;;12.54;70.64;99769.23;1626165;86;27555;-75
2021/04/30 05:11:00;;;;;;;14.55;10.20;;;;;;;12.58;70.54;99771.27;1626886;86;25953;-76
2021/04/30 05:13:28;;;;;;;11.70;8.80;;;;;;;12.63;70.52;99774.64;1627421;86;25874;-75
2021/04/30 05:15:55;;;;;;;15.85;10.10;;;;;;;12.60;70.06;99771.86;1633034;86;25627;-75
2021/04/30 05:18:22;;;;;;;13.40;9.88;;;;;;;12.56;69.86;99781.41;1627237;86;26438;-75
2021/04/30 05:20:49;;;;;;;12.90;10.25;;;;;;;12.56;69.86;99781.41;1649685;85;27345;-75
2021/04/30 05:23:17;;;;;;;13.88;10.28;;;;;;;12.60;69.96;99778.58;1626796;84;26011;-75
2021/04/30 05:25:45;;;;;;;15.35;9.70;;;;;;;12.67;70.08;99788.76;1688224;84;25802;-75
2021/04/30 05:28:12;;;;;;;21.87;15.63;;;;;;;12.74;69.94;99782.81;1669911;84;25817;-74
2021/04/30 05:30:40;;;;;;;16.97;12.90;;;;;;;12.90;69.86;99789.47;1670558;84;25932;-75
2021/04/30 05:33:08;;;;;;;18.23;14.10;;;;;;;13.00;69.36;99791.95;1644593;84;27632;-75
2021/04/30 05:35:35;;;;;;;18.00;11.97;;;;;;;13.04;69.09;99793.70;1672743;84;25729;-75
2021/04/30 05:38:05;;;;;;;17.02;11.00;;;;;;;13.03;68.60;99788.00;1664037;84;25704;-75
2021/04/30 05:40:33;;;;;;;13.08;10.78;;;;;;;13.03;68.70;99791.52;1662935;84;25525;-75
2021/04/30 05:43:01;;;;;;;13.60;10.60;;;;;;;13.05;68.32;99791.32;1617591;84;26170;-76
2021/04/30 05:45:29;;;;;;;12.65;11.33;;;;;;;13.09;68.34;99796.04;1667924;84;28195;-75
2021/04/30 05:47:56;;;;;;;13.10;10.55;;;;;;;13.13;68.27;99798.58;1669417;84;26085;-75
2021/04/30 05:50:23;;;;;;;13.45;10.45;;;;;;;13.22;68.31;99800.97;1662574;84;25908;-75
2021/04/30 05:52:51;;;;;;;13.40;11.43;;;;;;;13.28;67.58;99795.52;1623556;85;26451;-74
2021/04/30 05:55:18;;;;;;;14.33;11.28;;;;;;;13.33;67.54;99805.61;1645127;84;26568;-73
2021/04/30 05:57:45;;;;;;;15.08;11.40;;;;;;;13.38;67.30;99811.98;1669211;84;28060;-73
2021/04/30 06:00:14;;;;;;;12.70;10.80;;;;;;;13.41;67.25;99810.72;1670774;84;26345;-74
2021/04/30 06:02:43;;;;;;;14.20;11.50;;;;;;;13.45;66.88;99811.37;1671150;84;25964;-73
2021/04/30 06:05:11;;;;;;;16.12;11.63;;;;;;;13.51;66.99;99817.22;1669232;84;25812;-74
2021/04/30 06:07:39;;;;;;;18.85;12.78;;;;;;;13.59;66.75;99820.95;1669602;84;26145;-74
2021/04/30 06:10:08;;;;;;;20.02;12.53;;;;;;;13.64;65.83;99815.69;1667134;84;27556;-73
2021/04/30 06:12:35;;;;;;;19.73;14.05;;;;;;;13.65;65.88;99821.39;1639243;85;25771;-73
2021/04/30 06:15:05;;;;;;;31.45;19.80;;;;;;;13.71;65.91;99825.03;1654095;85;25814;-74
2021/04/30 06:17:32;;;;;;;41.92;26.55;;;;;;;13.72;65.62;99818.10;1642808;85;26428;-75
2021/04/30 06:19:59;;;;;;;31.82;19.67;;;;;;;13.75;65.54;99826.25;1663235;84;25854;-73
2021/04/30 06:22:26;;;;;;;29.05;20.10;;;;;;;13.79;65.36;99827.45;1662352;84;28996;-73
2021/04/30 06:24:54;;;;;;;15.90;13.62;;;;;;;13.81;65.60;99822.11;1656879;85;26460;-73
2021/04/30 06:27:21;;;;;;;17.52;13.78;;;;;;;13.89;65.52;99823.69;1654662;85;25795;-74
2021/04/30 06:29:48;;;;;;;17.52;13.25;;;;;;;14.02;65.52;99819.47;1672835;84;26140;-74
2021/04/30 06:32:16;;;;;;;16.42;11.48;;;;;;;14.16;64.92;99821.44;1652295;84;25758;-74
2021/04/30 06:34:43;;;;;;;16.12;13.40;;;;;;;14.24;64.69;99822.48;1674832;84;27547;-73
2021/04/30 06:37:10;;;;;;;13.62;11.33;;;;;;;14.28;64.63;99825.84;1673974;84;25757;-74
2021/04/30 06:39:38;;;;;;;14.70;11.43;;;;;;;14.33;63.40;99827.34;1668507;84;25917;-75
2021/04/30 06:42:06;;;;;;;12.43;11.10;;;;;;;14.33;62.61;99825.16;1609219;85;25715;-73
2021/04/30 06:44:34;;;;;;;13.20;11.75;;;;;;;14.35;63.21;99834.66;1642130;85;26607;-74
2021/04/30 06:47:01;;;;;;;14.45;11.83;;;;;;;14.44;63.63;99830.59;1662656;85;27620;-74
2021/04/30 06:49:29;;;;;;;14.50;12.53;;;;;;;14.51;62.91;99831.84;1664028;85;26471;-75
2021/04/30 06:51:56;;;;;;;15.43;11.63;;;;;;;14.55;63.31;99837.06;1660472;85;25946;-74
2021/04/30 06:54:23;;;;;;;14.63;11.60;;;;;;;14.58;62.75;99831.23;1641584;85;26445;-74
2021/04/30 06:56:51;;;;;;;14.60;12.35;;;;;;;14.63;62.14;99844.30;1662855;85;25729;-74
2021/04/30 06:59:18;;;;;;;17.50;13.40;;;;;;;14.69;62.79;99841.22;1663752;85;27341;-74
2021/04/30 07:01:45;;;;;;;14.73;12.10;;;;;;;14.77;62.42;99846.27;1638227;85;25880;-74
2021/04/30 07:04:13;;;;;;;15.93;13.40;;;;;;;14.80;61.56;99848.48;1630866;85;26473;-75
2021/04/30 07:06:40;;;;;;;14.13;11.95;;;;;;;14.81;62.41;99846.61;1664006;85;26437;-73
2021/04/30 07:09:07;;;;;;;13.95;11.35;;;;;;;14.87;62.06;99841.12;1663897;85;26420;-74
2021/04/30 07:11:35;;;;;;;14.40;12.20;;;;;;;14.92;62.19;99847.16;1663888;84;27597;-75
2021/04/30 07:14:04;;;;;;;15.55;12.00;;;;;;;14.95;60.77;99853.45;1638245;85;26497;-74
2021/04/30 07:16:32;;;;;;;15.18;13.58;;;;;;;14.92;61.47;99853.91;1642117;85;25938;-74
2021/04/30 07:18:59;;;;;;;16.50;12.75;;;;;;;14.99;61.68;99864.06;1657027;85;26492;-73
2021/04/30 07:21:26;;;;;;;15.65;12.60;;;;;;;14.97;60.75;99857.53;1641483;85;26045;-73
2021/04/30 07:23:54;;;;;;;13.58;12.00;;;;;;;14.97;61.08;99864.83;1634717;85;27483;-73
2021/04/30 07:26:21;;;;;;;15.00;12.07;;;;;;;14.96;61.24;99864.00;1653851;85;25737;-74
2021/04/30 07:28:48;;;;;;;13.50;12.10;;;;;;;15.00;61.87;99868.39;1647222;85;25806;-74
2021/04/30 07:31:16;;;;;;;14.90;11.65;;;;;;;14.96;61.07;99867.21;1632089;85;25976;-74
2021/04/30 07:33:46;;;;;;;14.90;11.00;;;;;;;14.90;60.85;99868.15;1625914;85;26099;-74
2021/04/30 07:36:14;;;;;;;14.68;12.68;;;;;;;14.90;61.60;99872.19;1674677;85;28449;-74
2021/04/30 07:38:42;;;;;;;15.20;11.00;;;;;;;14.94;61.82;99876.06;1653410;85;25994;-74
2021/04/30 07:41:11;;;;;;;13.22;11.83;;;;;;;14.95;60.84;99877.17;1635474;86;26985;-74
2021/04/30 07:43:38;;;;;;;14.03;11.48;;;;;;;15.00;60.98;99880.52;1650418;84;26431;-75
2021/04/30 07:46:06;;;;;;;13.50;10.90;;;;;;;15.05;61.49;99886.88;1652365;86;25891;-74
2021/04/30 07:48:34;;;;;;;14.05;11.30;;;;;;;15.17;60.38;99882.83;1673639;84;27359;-75
2021/04/30 07:51:02;;;;;;;12.35;10.90;;;;;;;15.22;61.08;99887.00;1624852;85;26156;-74
2021/04/30 07:53:32;;;;;;;16.20;11.83;;;;;;;15.33;60.64;99892.94;1650942;84;25692;-74
2021/04/30 07:56:00;;;;;;;14.23;11.00;;;;;;;15.29;58.17;99895.81;1652288;86;25831;-74
2021/04/30 07:58:28;;;;;;;14.03;10.53;;;;;;;15.22;58.90;99893.75;1627100;84;26453;-74
2021/04/30 08:00:58;;;;;;;14.98;11.60;;;;;;;15.14;59.31;99898.15;1662065;86;27600;-74
2021/04/30 08:03:26;;;;;;;17.52;12.23;;;;;;;15.11;58.82;99885.94;1650426;84;35455;-73
2021/04/30 08:05:54;;;;;;;14.20;12.23;;;;;;;15.24;59.90;99891.64;1668986;84;25830;-73
2021/04/30 08:08:21;;;;;;;12.35;10.85;;;;;;;15.24;57.85;99893.81;1648753;84;25939;-75
2021/04/30 08:10:50;;;;;;;15.13;11.60;;;;;;;15.15;56.09;99899.25;1639354;86;26684;-74
2021/04/30 08:13:18;;;;;;;16.82;12.63;;;;;;;15.12;56.80;99905.11;1672777;84;27524;-73
2021/04/30 08:15:46;;;;;;;16.75;13.72;;;;;;;15.15;57.94;99907.34;1652506;85;26068;-74
2021/04/30 08:18:13;;;;;;;20.00;13.68;;;;;;;15.09;56.97;99896.67;1672365;84;26562;-74
2021/04/30 08:20:41;;;;;;;17.27;13.10;;;;;;;15.08;57.28;99906.62;1672383;84;25910;-74
2021/04/30 08:23:08;;;;;;;19.90;13.35;;;;;;;15.07;55.96;99906.87;1652533;86;26389;-75
2021/04/30 08:25:35;;;;;;;16.02;13.13;;;;;;;15.05;57.58;99897.67;1668053;84;27031;-74
2021/04/30 08:28:03;;;;;;;16.45;10.98;;;;;;;15.12;54.72;99912.40;1657061;86;25802;-74
2021/04/30 08:30:30;;;;;;;14.75;11.88;;;;;;;15.07;54.04;99906.87;1664409;84;25882;-74
2021/04/30 08:32:58;;;;;;;16.27;13.40;;;;;;;14.98;53.47;99909.08;1668254;84;25888;-73
2021/04/30 08:35:25;;;;;;;15.43;13.28;;;;;;;15.04;54.36;99916.23;1656183;86;26411;-74
2021/04/30 08:37:52;;;;;;;15.25;12.23;;;;;;;15.10;54.44;99917.17;1644872;84;27721;-74
2021/04/30 08:40:20;;;;;;;16.20;12.28;;;;;;;15.10;51.69;99925.27;1661663;83;26055;-74
2021/04/30 08:42:50;;;;;;;16.05;13.50;;;;;;;15.09;51.77;99920.42;1666705;84;25756;-74
2021/04/30 08:45:18;;;;;;;15.60;13.50;;;;;;;15.06;51.85;99920.88;1668234;84;26419;-74
2021/04/30 08:47:46;;;;;;;17.73;14.10;;;;;;;15.04;52.27;99920.80;1668416;84;26582;-73
2021/04/30 08:50:14;;;;;;;15.93;13.95;;;;;;;15.11;52.34;99923.70;1645630;84;28449;-74
2021/04/30 08:52:41;;;;;;;16.50;13.93;;;;;;;15.17;53.77;99924.64;1664279;84;25775;-74
2021/04/30 08:57:53;;;;;;;19.67;14.20;;;;;;;15.29;52.22;99931.69;1799165;77;25720;-74
2021/04/30 09:00:19;;;;;;;21.75;13.90;;;;;;;15.24;52.75;99936.16;1751517;80;25927;-73
2021/04/30 09:02:47;;;;;;;17.32;12.78;;;;;;;15.32;52.06;99934.45;1680741;82;27290;-75
2021/04/30 09:05:22;;;;;;;14.55;12.03;;;;;;;15.35;51.91;99938.84;1730900;82;26071;-74
2021/04/30 09:07:49;;;;;;;15.23;13.13;;;;;;;15.44;52.27;99936.14;1730598;82;25904;-75
2021/04/30 09:10:19;;;;;;;13.48;11.75;;;;;;;15.39;52.68;99939.22;1675438;82;25899;-74
2021/04/30 09:13:07;;;;;;;15.78;12.35;;;;;;;15.39;51.74;99945.97;1706009;82;25778;-74
2021/04/30 09:15:36;;;;;;;13.83;12.15;;;;;;;15.33;51.85;99942.86;1741383;82;28457;-74
2021/04/30 09:18:24;;;;;;;14.80;12.88;;;;;;;15.21;51.03;99949.58;1677068;82;25807;-75
2021/04/30 09:20:54;;;;;;;15.18;12.10;;;;;;;15.07;51.59;99950.86;1731531;82;26422;-75
2021/04/30 09:23:33;;;;;;;19.52;12.28;;;;;;;15.11;51.59;99953.91;1708721;82;25935;-75
2021/04/30 09:26:04;;;;;;;15.90;12.68;;;;;;;15.08;51.40;99953.00;1736699;82;25787;-74
2021/04/30 09:28:31;;;;;;;13.38;11.53;;;;;;;15.04;50.94;99958.56;1659728;82;28454;-74
2021/04/30 09:30:59;;;;;;;17.37;11.00;;;;;;;15.07;52.36;99960.81;1686520;82;26455;-74
2021/04/30 09:33:26;;;;;;;13.60;10.50;;;;;;;15.17;51.74;99969.98;1683266;82;25875;-74
2021/04/30 09:36:00;;;;;;;12.18;9.45;;;;;;;15.25;50.54;99964.24;1709412;82;26559;-75
2021/04/30 09:38:35;;;;;;;12.33;9.65;;;;;;;15.16;49.59;99972.38;1669894;82;26194;-75
2021/04/30 09:41:11;;;;;;;11.25;9.90;;;;;;;15.08;49.42;99973.23;1658894;83;28525;-73
2021/04/30 09:43:50;;;;;;;10.05;7.78;;;;;;;15.02;49.55;99972.30;1698944;83;26640;-74
2021/04/30 09:46:30;;;;;;;12.50;9.18;;;;;;;15.05;47.96;99971.02;1703895;83;25745;-74
2021/04/30 09:49:13;;;;;;;11.22;8.53;;;;;;;14.98;48.10;99969.77;1658552;83;25820;-74
2021/04/30 09:51:47;;;;;;;11.08;8.38;;;;;;;14.90;48.15;99976.84;1706447;83;26408;-73
2021/04/30 09:54:24;;;;;;;11.22;8.18;;;;;;;14.90;47.65;99985.45;1676003;83;26567;-74
2021/04/30 09:57:16;;;;;;;10.95;8.78;;;;;;;14.89;47.73;99974.35;1633598;86;25811;-74
2021/04/30 09:59:54;;;;;;;8.63;7.72;;;;;;;14.92;47.88;99986.88;1635483;86;25913;-75
2021/04/30 10:02:24;;;;;;;7.80;6.95;;;;;;;14.90;48.37;99999.77;1643159;86;25763;-74
2021/04/30 10:04:55;;;;;;;9.10;8.20;;;;;;;14.89;46.87;99997.27;1639642;86;25464;-74
2021/04/30 10:07:39;;;;;;;7.95;7.15;;;;;;;14.94;46.92;99997.42;1651498;86;27558;-74
2021/04/30 10:10:12;;;;;;;9.98;7.47;;;;;;;14.89;46.85;100005.36;1629516;86;25798;-74
2021/04/30 10:12:47;;;;;;;9.40;8.40;;;;;;;14.76;47.72;100007.72;1628070;86;25824;-74
2021/04/30 10:15:19;;;;;;;9.98;8.88;;;;;;;14.72;47.72;100009.75;1622911;86;26246;-74
2021/04/30 10:17:49;;;;;;;9.98;7.95;;;;;;;14.61;47.02;100018.91;1635002;86;26389;-75
2021/04/30 10:20:17;;;;;;;8.80;7.90;;;;;;;14.55;47.18;100018.47;1613487;88;28521;-73
2021/04/30 10:22:46;;;;;;;9.55;8.10;;;;;;;14.62;48.63;100015.18;1601245;86;26526;-74
2021/04/30 10:27:55;;;;;;;10.80;8.90;;;;;;;14.87;47.86;100012.86;1795282;79;25880;-74
2021/04/30 10:31:02;;;;;;;10.00;7.87;;;;;;;14.85;48.08;100024.41;1721715;82;25798;-75
2021/04/30 10:33:51;;;;;;;11.90;9.33;;;;;;;14.84;47.77;100024.13;1704976;82;27913;-75
2021/04/30 10:36:33;;;;;;;10.23;9.00;;;;;;;14.89;48.29;100030.98;1710201;82;26083;-74
2021/04/30 10:39:03;;;;;;;10.58;9.10;;;;;;;14.91;47.81;100030.22;1677403;82;25855;-73
2021/04/30 10:41:40;;;;;;;11.70;9.90;;;;;;;14.89;47.97;100033.16;1652828;83;25929;-73
2021/04/30 10:44:21;;;;;;;11.00;9.70;;;;;;;14.82;47.50;100041.05;1660011;84;25950;-74
2021/04/30 10:46:52;;;;;;;11.03;9.35;;;;;;;14.78;48.33;100040.66;1678137;84;28157;-74
2021/04/30 10:49:27;;;;;;;10.40;8.53;;;;;;;14.84;48.24;100051.09;1790507;79;25740;-73
2021/04/30 10:52:16;;;;;;;10.63;8.93;;;;;;;14.75;48.49;100055.13;1700765;82;25740;-73
2021/04/30 10:54:47;;;;;;;10.15;8.85;;;;;;;14.76;48.39;100053.55;1751656;80;27342;-74
2021/04/30 10:57:18;;;;;;;10.10;9.00;;;;;;;14.63;48.51;100051.84;1727446;82;25898;-74
2021/04/30 10:59:49;;;;;;;11.85;10.60;;;;;;;14.58;48.13;100050.34;1677857;82;25869;-74
2021/04/30 11:02:31;;;;;;;11.18;9.33;;;;;;;14.56;48.06;100059.73;1721316;82;25709;-74
2021/04/30 11:05:12;;;;;;;11.45;9.63;;;;;;;14.63;48.57;100052.36;1710306;82;25726;-74
2021/04/30 11:07:51;;;;;;;11.00;9.63;;;;;;;14.68;48.56;100060.61;1727062;82;28450;-73
2021/04/30 11:10:32;;;;;;;13.65;9.80;;;;;;;14.72;48.52;100062.31;1717976;82;25635;-73
2021/04/30 11:13:06;;;;;;;9.80;8.90;;;;;;;14.62;47.79;100062.87;1709149;82;26032;-75
2021/04/30 11:15:50;;;;;;;10.10;8.25;;;;;;;14.50;48.01;100066.83;1701343;82;26487;-74
2021/04/30 11:18:21;;;;;;;12.60;11.20;;;;;;;14.40;47.55;100073.79;1725451;82;25705;-74
2021/04/30 11:21:10;;;;;;;11.57;9.85;;;;;;;14.30;48.60;100077.02;1691088;82;28776;-73
2021/04/30 11:23:47;;;;;;;11.65;10.08;;;;;;;14.28;49.02;100075.04;1681977;83;25493;-74
2021/04/30 11:26:16;;;;;;;10.85;9.70;;;;;;;14.26;49.15;100081.17;1677266;83;26183;-74
2021/04/30 11:28:57;;;;;;;12.25;9.83;;;;;;;14.26;49.34;100069.56;1682864;84;26704;-75
2021/04/30 11:31:34;;;;;;;12.68;10.18;;;;;;;14.24;49.69;100081.09;1681361;84;25943;-75
2021/04/30 11:34:15;;;;;;;12.78;10.13;;;;;;;14.28;49.32;100083.12;1640727;84;27526;-73
2021/04/30 11:36:50;;;;;;;9.13;7.45;;;;;;;14.43;49.55;100080.09;1657880;84;26011;-76
2021/04/30 11:39:28;;;;;;;14.70;10.30;;;;;;;14.52;48.87;100085.48;1669564;84;25868;-74